createdAt,value
2023-01-07T00:01:39.955Z,781.25
2023-01-07T00:04:08.440Z,771.75
2023-01-07T00:06:37.080Z,777.35
2023-01-07T00:09:05.995Z,768.92
2023-01-07T00:11:38.806Z,773.33
2023-01-07T00:14:07.507Z,783.28
2023-01-07T00:16:35.751Z,794.85
2023-01-07T00:19:04.464Z,784.03
2023-01-07T00:21:31.851Z,783.03
2023-01-07T00:24:01.001Z,787.30
2023-01-07T00:26:30.886Z,785.53
2023-01-07T00:28:57.906Z,788.72
2023-01-07T05:31:00.119Z,803.67
2023-01-07T05:33:26.840Z,800.03
2023-01-07T05:35:53.471Z,807.97
2023-01-07T05:38:20.339Z,811.42
2023-01-07T05:40:49.869Z,801.38
2023-01-07T05:43:17.168Z,814.25
2023-01-07T05:45:45.821Z,815.78
2023-01-07T05:48:13.800Z,802.05
2023-01-07T05:50:40.661Z,802.23
2023-01-07T05:53:07.709Z,804.42
2023-01-07T05:55:36.701Z,799.53
2023-01-07T05:58:03.449Z,793.00
2023-01-07T06:00:30.501Z,803.17
2023-01-07T06:02:57.119Z,799.75
2023-01-07T06:05:23.809Z,798.72
2023-01-07T06:07:50.446Z,791.47
2023-01-07T06:10:17.085Z,792.73
2023-01-07T06:12:43.851Z,793.90
2023-01-07T06:15:11.116Z,795.33
2023-01-07T06:17:37.955Z,798.65
2023-01-07T06:20:05.972Z,798.00
2023-01-07T06:22:32.639Z,790.85
2023-01-07T06:24:59.303Z,785.45
2023-01-07T06:27:25.914Z,795.13
2023-01-07T06:29:52.524Z,795.67
2023-01-07T06:32:19.165Z,795.22
2023-01-07T06:34:45.827Z,790.40
2023-01-07T06:37:14.731Z,791.00
2023-01-07T06:39:41.345Z,789.25
2023-01-07T06:42:07.945Z,785.65
2023-01-07T06:44:34.910Z,790.47
2023-01-07T06:47:01.619Z,795.45
2023-01-07T06:49:28.293Z,787.33
2023-01-07T06:51:54.994Z,789.60
2023-01-07T06:54:21.711Z,800.50
2023-01-07T06:56:48.479Z,793.65
2023-01-07T06:59:15.187Z,801.73
2023-01-07T07:01:41.925Z,801.38
2023-01-07T07:04:08.667Z,802.92
2023-01-07T07:06:35.304Z,791.40
2023-01-07T07:09:02.090Z,790.03
2023-01-07T07:11:28.809Z,794.30
2023-01-07T07:13:55.687Z,787.33
2023-01-07T07:16:23.939Z,801.93
2023-01-07T07:18:50.653Z,803.85
2023-01-07T07:21:20.263Z,809.42
2023-01-07T07:23:46.987Z,792.95
2023-01-07T07:26:14.112Z,784.60
2023-01-07T07:28:42.764Z,797.58
2023-01-07T07:31:09.890Z,785.50
2023-01-07T07:33:36.738Z,779.00
2023-01-07T07:36:04.674Z,785.13
2023-01-07T07:38:31.357Z,782.95
2023-01-07T07:40:58.056Z,782.22
2023-01-07T07:43:24.668Z,783.85
2023-01-07T07:45:51.305Z,785.13
2023-01-07T07:48:17.942Z,795.63
2023-01-07T07:50:44.759Z,786.03
2023-01-07T07:53:11.659Z,787.83
2023-01-07T07:55:39.448Z,779.25
2023-01-07T07:58:06.670Z,783.10
2023-01-07T08:00:33.432Z,788.67
2023-01-07T08:03:00.772Z,788.85
2023-01-07T08:05:28.401Z,784.65
2023-01-07T08:07:56.131Z,779.72
2023-01-07T08:10:23.818Z,788.00
2023-01-07T08:12:50.715Z,783.13
2023-01-07T08:15:17.952Z,782.30
2023-01-07T08:17:44.767Z,780.13
2023-01-07T08:20:12.251Z,771.50
2023-01-07T08:22:39.027Z,782.72
2023-01-07T08:25:06.195Z,777.25
2023-01-07T08:27:32.842Z,784.97
2023-01-07T08:29:59.429Z,780.58
2023-01-07T08:32:26.101Z,777.65
2023-01-07T08:34:52.901Z,784.47
2023-01-07T08:37:19.559Z,791.53
2023-01-07T08:39:46.176Z,792.38
2023-01-07T08:42:12.838Z,785.78
2023-01-07T08:44:39.459Z,789.97
2023-01-07T08:47:06.052Z,796.63
2023-01-07T08:49:32.695Z,807.23
2023-01-07T08:51:59.281Z,792.43
2023-01-07T08:54:25.915Z,791.50
2023-01-07T08:56:52.578Z,807.40
2023-01-07T08:59:19.250Z,794.92
2023-01-07T09:01:46.057Z,800.67
2023-01-07T09:04:12.854Z,806.05
2023-01-07T09:06:39.445Z,805.13
2023-01-07T09:09:06.306Z,813.47
2023-01-07T09:11:32.943Z,803.85
2023-01-07T09:13:59.594Z,814.70
2023-01-07T09:16:26.285Z,804.77
2023-01-07T09:18:53.181Z,809.20
2023-01-07T09:21:19.878Z,815.03
2023-01-07T09:23:46.480Z,817.20
2023-01-07T09:26:13.173Z,821.05
2023-01-07T09:28:39.816Z,806.10
2023-01-07T09:31:07.099Z,812.55
2023-01-07T09:33:33.769Z,822.70
2023-01-07T09:36:00.534Z,827.33
2023-01-07T09:38:27.516Z,823.95
2023-01-07T09:40:55.273Z,815.40
2023-01-07T09:43:59.949Z,826.87
2023-01-07T09:46:17.384Z,821.92
2023-01-07T09:48:47.358Z,816.92
2023-01-07T09:51:38.497Z,809.60
2023-01-07T09:54:13.343Z,809.73
2023-01-07T09:56:40.555Z,794.75
2023-01-07T09:59:10.316Z,801.17
2023-01-07T10:02:00.046Z,790.83
2023-01-07T10:04:58.967Z,812.58
2023-01-07T10:07:31.764Z,809.38
2023-01-07T10:10:16.240Z,817.83
2023-01-07T10:13:16.210Z,817.75
2023-01-07T10:16:13.135Z,821.10
2023-01-07T10:19:01.488Z,815.63
2023-01-07T10:21:37.600Z,820.47
2023-01-07T10:24:13.501Z,813.07
2023-01-07T10:26:45.035Z,806.72
2023-01-07T10:29:17.350Z,805.00
2023-01-07T10:31:45.568Z,797.75
2023-01-07T10:34:22.327Z,801.42
2023-01-07T10:36:57.645Z,798.20
2023-01-07T10:39:24.326Z,804.55
2023-01-07T10:42:21.081Z,806.75
2023-01-07T10:45:06.628Z,803.35
2023-01-07T10:47:48.050Z,806.55
2023-01-07T10:50:35.734Z,779.65
2023-01-07T10:53:08.057Z,779.30
2023-01-07T10:55:44.245Z,780.85
2023-01-07T10:58:11.812Z,777.60
2023-01-07T11:00:41.968Z,799.17
2023-01-07T11:03:29.249Z,804.45
2023-01-07T11:05:59.782Z,805.72
2023-01-07T11:08:30.197Z,806.45
2023-01-07T11:10:58.840Z,798.33
2023-01-07T11:13:30.234Z,809.07
2023-01-07T11:16:07.647Z,810.50
2023-01-07T11:18:52.445Z,833.72
2023-01-07T11:21:46.652Z,833.13
2023-01-07T11:24:19.352Z,834.35
2023-01-07T11:26:46.897Z,834.63
2023-01-07T11:29:29.649Z,841.42
2023-01-07T11:31:59.058Z,867.97
2023-01-07T11:34:31.549Z,901.42
2023-01-07T11:36:58.368Z,948.00
2023-01-07T11:39:27.951Z,984.97
2023-01-07T11:41:58.525Z,1008.15
2023-01-07T11:44:26.031Z,1004.70
2023-01-07T11:46:53.640Z,994.45
2023-01-07T11:49:29.608Z,989.03
2023-01-07T11:51:56.912Z,973.33
2023-01-07T11:54:29.229Z,972.53
2023-01-07T11:57:20.499Z,977.35
2023-01-07T11:59:47.131Z,984.03
2023-01-07T12:02:27.654Z,989.05
2023-01-07T12:05:26.131Z,1014.38
2023-01-07T12:07:53.925Z,1022.53
2023-01-07T12:10:32.916Z,1022.63
2023-01-07T12:13:01.882Z,1019.05
2023-01-07T12:15:31.871Z,1000.80
2023-01-07T12:18:07.591Z,993.08
2023-01-07T12:20:55.818Z,983.50
2023-01-07T12:24:00.507Z,979.47
2023-01-07T12:26:48.562Z,980.88
2023-01-07T12:29:48.159Z,979.60
2023-01-07T12:32:33.458Z,980.30
2023-01-07T12:35:15.016Z,969.63
2023-01-07T12:37:49.736Z,957.45
2023-01-07T12:40:38.834Z,951.67
2023-01-07T12:43:15.646Z,946.90
2023-01-07T12:45:57.557Z,948.55
2023-01-07T12:48:47.267Z,938.00
2023-01-07T12:51:23.437Z,936.83
2023-01-07T12:53:58.471Z,930.30
2023-01-07T12:56:46.353Z,922.67
2023-01-07T12:59:47.198Z,922.50
2023-01-07T13:02:33.517Z,919.75
2023-01-07T13:05:07.911Z,927.00
2023-01-07T13:08:10.688Z,929.70
2023-01-07T13:10:42.974Z,931.40
2023-01-07T13:13:22.488Z,927.45
2023-01-07T13:15:49.834Z,932.50
2023-01-07T13:18:19.407Z,927.88
2023-01-07T13:20:55.349Z,934.28
2023-01-07T13:23:31.161Z,929.63
2023-01-07T13:26:36.774Z,932.55
2023-01-07T13:29:15.440Z,925.60
2023-01-07T13:32:02.686Z,924.10
2023-01-07T13:34:50.471Z,927.25
2023-01-07T13:37:52.079Z,923.08
2023-01-07T13:40:46.412Z,923.13
2023-01-07T13:43:32.215Z,929.28
2023-01-07T13:46:28.743Z,923.92
2023-01-07T13:48:55.507Z,928.65
2023-01-07T13:51:37.879Z,925.22
2023-01-07T13:54:04.643Z,925.47
2023-01-07T13:56:40.646Z,934.95
2023-01-07T13:59:30.598Z,924.83
2023-01-07T14:02:14.679Z,931.13
2023-01-07T14:05:03.356Z,928.95
2023-01-07T14:07:31.012Z,926.08
2023-01-07T14:09:58.199Z,931.57
2023-01-07T14:12:52.942Z,937.28
2023-01-07T14:15:38.102Z,935.83
2023-01-07T14:18:12.993Z,936.13
2023-01-07T14:20:47.810Z,943.85
2023-01-07T14:23:27.913Z,942.05
2023-01-07T14:26:00.599Z,949.17
2023-01-07T14:28:45.691Z,941.60
2023-01-07T14:31:27.578Z,937.38
2023-01-07T14:34:07.200Z,938.23
2023-01-07T14:37:08.893Z,934.97
2023-01-07T14:39:39.867Z,928.03
2023-01-07T14:42:18.595Z,920.65
2023-01-07T14:44:51.800Z,915.92
2023-01-07T14:47:43.477Z,903.38
2023-01-07T14:50:35.884Z,896.17
2023-01-07T14:53:21.269Z,882.20
2023-01-07T14:56:12.622Z,874.88
2023-01-07T14:59:04.799Z,860.93
2023-01-07T15:02:00.632Z,864.80
2023-01-07T15:04:51.742Z,853.50
2023-01-07T15:07:24.971Z,865.67
2023-01-07T15:10:14.996Z,848.13
2023-01-07T15:13:01.976Z,845.80
2023-01-07T15:15:50.543Z,844.65
2023-01-07T15:18:17.590Z,832.92
2023-01-07T15:21:06.881Z,836.28
2023-01-07T15:23:54.505Z,837.47
2023-01-07T15:26:30.615Z,817.40
2023-01-07T15:29:09.050Z,804.55
2023-01-07T15:32:03.068Z,808.13
2023-01-07T15:34:31.905Z,804.77
2023-01-07T15:37:02.722Z,798.95
2023-01-07T15:39:39.706Z,784.60
2023-01-07T15:42:13.410Z,778.77
2023-01-07T15:44:41.452Z,782.85
2023-01-07T15:47:26.724Z,785.65
2023-01-07T15:49:53.399Z,783.65
2023-01-07T15:52:24.965Z,777.33
2023-01-07T15:54:51.564Z,781.45
2023-01-07T15:57:29.078Z,790.40
2023-01-07T15:59:56.533Z,784.70
2023-01-07T16:02:31.020Z,781.92
2023-01-07T16:05:00.834Z,790.47
2023-01-07T16:07:28.684Z,783.92
2023-01-07T16:09:57.151Z,784.58
2023-01-07T16:12:32.936Z,791.75
2023-01-07T16:14:59.890Z,775.60
2023-01-07T16:17:27.301Z,772.70
2023-01-07T16:20:24.003Z,773.17
2023-01-07T16:22:51.965Z,775.25
2023-01-07T16:25:30.149Z,770.17
2023-01-07T16:27:57.102Z,757.22
2023-01-07T16:30:24.300Z,763.15
2023-01-07T16:32:54.552Z,761.03
2023-01-07T16:35:29.351Z,759.08
2023-01-07T16:37:56.081Z,762.03
2023-01-07T16:40:35.384Z,760.13
2023-01-07T16:43:03.147Z,757.35
2023-01-07T16:45:34.840Z,759.38
2023-01-07T16:48:20.140Z,759.37
2023-01-07T16:50:48.482Z,752.63
2023-01-07T16:53:26.005Z,750.17
2023-01-07T16:56:12.825Z,753.78
2023-01-07T16:58:42.719Z,750.43
2023-01-07T17:01:10.860Z,747.70
2023-01-07T17:03:55.551Z,754.37
2023-01-07T17:06:29.464Z,751.00
2023-01-07T17:08:57.198Z,750.50
2023-01-07T17:11:33.827Z,743.85
2023-01-07T17:14:00.502Z,751.00
2023-01-07T17:16:34.697Z,738.42
2023-01-07T17:19:25.339Z,741.17
2023-01-07T17:21:53.256Z,755.17
2023-01-07T17:24:42.902Z,750.63
2023-01-07T17:27:19.556Z,743.35
2023-01-07T17:29:46.255Z,744.25
2023-01-07T17:32:13.821Z,741.57
2023-01-07T17:34:40.424Z,744.95
2023-01-07T17:37:14.997Z,724.53
2023-01-07T17:39:43.349Z,729.08
2023-01-07T17:42:41.222Z,716.70
2023-01-07T17:45:08.579Z,713.97
2023-01-07T17:47:35.247Z,733.88
2023-01-07T17:50:01.855Z,733.40
2023-01-07T17:52:28.945Z,723.20
2023-01-07T17:54:55.635Z,721.60
2023-01-07T17:57:22.624Z,726.75
2023-01-07T17:59:49.813Z,721.72
2023-01-07T18:02:18.836Z,720.78
2023-01-07T18:04:45.611Z,704.17
2023-01-07T18:07:15.968Z,708.83
2023-01-07T18:09:42.967Z,725.38
2023-01-07T18:12:31.195Z,701.63
2023-01-07T18:14:59.168Z,695.88
2023-01-07T18:17:26.311Z,701.05
2023-01-07T18:19:53.973Z,690.88
2023-01-07T18:22:21.248Z,697.25
2023-01-07T18:24:48.885Z,694.45
2023-01-07T18:27:17.044Z,694.50
2023-01-07T18:29:43.990Z,696.50
2023-01-07T18:32:10.747Z,692.08
2023-01-07T18:34:37.454Z,687.88
2023-01-07T18:37:04.253Z,686.78
2023-01-07T18:39:30.918Z,692.38
2023-01-07T18:41:57.625Z,685.95
2023-01-07T18:44:24.832Z,688.75
2023-01-07T18:46:51.623Z,686.00
2023-01-07T18:49:18.357Z,690.27
2023-01-07T18:51:48.380Z,684.83
2023-01-07T18:54:16.166Z,682.43
2023-01-07T18:56:45.657Z,683.35
2023-01-07T18:59:13.433Z,680.78
2023-01-07T19:01:40.175Z,694.28
2023-01-07T19:04:07.087Z,688.45
2023-01-07T19:06:33.977Z,685.90
2023-01-07T19:09:00.711Z,687.67
2023-01-07T19:11:27.345Z,682.13
2023-01-07T19:13:54.083Z,690.05
2023-01-07T19:16:20.820Z,681.65
2023-01-07T19:18:48.454Z,686.07
2023-01-07T19:21:15.179Z,689.25
2023-01-07T19:23:41.851Z,684.17
2023-01-07T19:26:10.845Z,683.10
2023-01-07T19:28:37.465Z,682.85
2023-01-07T19:31:06.683Z,688.47
2023-01-07T19:33:33.885Z,691.38
2023-01-07T19:36:11.526Z,684.20
2023-01-07T19:38:44.783Z,674.17
2023-01-07T19:41:13.694Z,679.57
2023-01-07T19:43:40.600Z,673.00
2023-01-07T19:46:09.642Z,673.83
2023-01-07T19:48:36.485Z,678.30
2023-01-07T19:51:05.348Z,694.60
2023-01-07T19:53:33.227Z,693.42
2023-01-07T19:56:01.426Z,681.90
2023-01-07T19:58:29.457Z,684.40
2023-01-07T20:01:04.311Z,666.75
2023-01-07T20:03:32.583Z,678.08
2023-01-07T20:06:07.040Z,688.17
2023-01-07T20:08:34.248Z,678.42
2023-01-07T20:11:01.059Z,681.08
2023-01-07T20:13:29.290Z,688.58
2023-01-07T20:15:55.991Z,690.25
2023-01-07T20:18:22.933Z,681.42
2023-01-07T20:20:57.759Z,678.90
2023-01-07T20:23:25.238Z,682.45
2023-01-07T20:25:52.001Z,679.72
2023-01-07T20:28:19.480Z,674.25
2023-01-07T20:30:46.229Z,664.92
2023-01-07T20:33:12.969Z,671.15
2023-01-07T20:35:39.770Z,668.83
2023-01-07T20:38:09.317Z,673.75
2023-01-07T20:40:40.130Z,675.45
2023-01-07T20:43:07.595Z,672.95
2023-01-07T20:45:38.118Z,675.70
2023-01-07T20:48:05.242Z,673.63
2023-01-07T20:50:35.541Z,673.43
2023-01-07T20:53:02.230Z,666.15
2023-01-07T20:55:28.850Z,664.15
2023-01-07T20:57:55.470Z,657.78
2023-01-07T21:00:22.100Z,656.78
2023-01-07T21:02:48.832Z,653.58
2023-01-07T21:05:20.074Z,654.80
2023-01-07T21:07:49.979Z,645.13
2023-01-07T21:10:18.857Z,648.35
2023-01-07T21:12:46.256Z,652.63
2023-01-07T21:15:16.166Z,653.58
2023-01-07T21:17:42.945Z,646.88
2023-01-07T21:20:13.157Z,653.35
2023-01-07T21:22:39.910Z,647.17
2023-01-07T21:25:10.171Z,658.42
2023-01-07T21:27:38.104Z,651.67
2023-01-07T21:30:06.581Z,655.63
2023-01-07T21:32:34.692Z,656.38
2023-01-07T21:35:01.739Z,652.72
2023-01-07T21:37:29.310Z,653.90
2023-01-07T21:39:56.071Z,649.80
2023-01-07T21:42:22.728Z,651.90
2023-01-07T21:44:49.403Z,654.95
2023-01-07T21:47:16.343Z,641.42
2023-01-07T21:49:43.908Z,644.70
2023-01-07T21:52:10.643Z,639.60
2023-01-07T21:54:37.336Z,638.70
2023-01-07T21:57:04.138Z,636.70
2023-01-07T21:59:30.842Z,635.13
2023-01-07T22:01:57.673Z,630.90
2023-01-07T22:04:24.429Z,631.53
2023-01-07T22:06:51.228Z,633.00
2023-01-07T22:09:17.869Z,642.22
2023-01-07T22:11:44.651Z,635.15
2023-01-07T22:14:15.184Z,643.97
2023-01-07T22:16:42.716Z,635.55
2023-01-07T22:19:13.169Z,636.65
2023-01-07T22:21:39.830Z,642.97
2023-01-07T22:24:07.436Z,641.45
2023-01-07T22:26:34.131Z,644.92
2023-01-07T22:29:03.348Z,637.63
2023-01-07T22:31:36.556Z,639.37
2023-01-07T22:34:07.586Z,628.95
2023-01-07T22:36:49.984Z,636.25
2023-01-07T22:39:28.912Z,635.53
2023-01-07T22:41:59.268Z,635.60
2023-01-07T22:44:33.121Z,645.13
2023-01-07T22:47:00.134Z,639.08
2023-01-07T22:49:29.444Z,637.17
2023-01-07T22:51:56.301Z,635.78
2023-01-07T22:54:24.058Z,630.15
2023-01-07T22:56:51.052Z,621.35
2023-01-07T22:59:17.679Z,630.97
2023-01-07T23:01:44.624Z,622.67
2023-01-07T23:04:11.370Z,629.30
2023-01-07T23:06:38.097Z,625.15
2023-01-07T23:09:05.074Z,621.63
2023-01-07T23:11:47.522Z,622.83
2023-01-07T23:14:18.476Z,623.40
2023-01-07T23:16:45.224Z,627.47
2023-01-07T23:19:12.739Z,623.85
2023-01-07T23:21:41.288Z,624.72
2023-01-07T23:24:08.181Z,613.85
2023-01-07T23:26:35.220Z,613.58
2023-01-07T23:29:01.818Z,614.80
2023-01-07T23:31:28.699Z,616.63
2023-01-07T23:33:55.551Z,612.90
2023-01-07T23:36:22.174Z,617.00
2023-01-07T23:38:48.986Z,620.03
2023-01-07T23:41:16.003Z,614.85
2023-01-07T23:43:42.607Z,611.27
2023-01-07T23:46:09.474Z,614.08
2023-01-07T23:48:37.577Z,618.70
2023-01-07T23:51:26.162Z,618.13
2023-01-07T23:53:52.831Z,608.92
2023-01-07T23:56:20.744Z,603.10
2023-01-07T23:58:48.335Z,614.20
